Weather observations for the past three days for
Gilmer, Fox Stephens Field - Gilmer Municipal Airport
Imperial (Metric)
Date Time (cdt) Wind (mph) Vis. (mi.) Weather Sky Cond. Temperature (ºF) Relative Humidity Wind Chill (°F) Heat Index (°F) Pressure Precipitation (in)
Air Dwpt 6 hour altimeter (in) sea level (mb) 1 hr 3 hr 6 hr
Max. Min.
31 18:15 E 5 10.00 Fair CLR 97.2 56.7 26% 96 29.95 0.0
31 17:55 E 3 10.00 Fair CLR 98.2 55.8 24% 97 29.95 0.0
31 17:35 E 7 10.00 Fair CLR 98.8 56.5 24% 98 29.95 0.0
31 17:15 E 8 10.00 Fair CLR 98.8 56.1 24% 97 29.95 0.0
31 16:55 E 6 10.00 Fair CLR 99.7 56.5 24% 99 29.96 0.0
31 16:35 SE 7 10.00 Fair CLR 98.8 54.7 23% 97 29.96 0.0
31 16:15 E 3 10.00 Fair CLR 97.9 57.6 26% 97 29.97 0.0
31 15:55 E 7 10.00 Fair CLR 97.9 58.3 27% 97 29.97 0.0
31 15:35 E 6 10.00 Fair CLR 98.6 58.5 26% 98 29.99 0.0
31 15:15 E 6 10.00 Fair CLR 98.1 58.5 27% 98 29.99 0.0
31 14:55 E 7 10.00 Fair CLR 97.7 58.8 27% 97 30 0.0
31 14:35 E 3 10.00 Fair CLR 95 60.1 31% 95 30.01 0.0
31 14:15 NE 5 10.00 Fair CLR 96.4 59.2 29% 96 30.01 0.0
31 13:55 NE 7 10.00 Fair CLR 95.5 58.6 29% 95 30.02 0.0
31 13:35 Calm 10.00 Fair CLR 95.7 59.7 30% 96 30.03 0.0
31 13:15 S 5 10.00 Fair CLR 94.8 60.1 31% 95 30.03 0.0
31 12:55 Calm 10.00 Fair CLR 96.1 60.3 97 74.7 30% 96 30.04 0.0
31 12:35 Calm 10.00 Fair CLR 95.7 61 32% 96 30.05 0.0
31 12:15 Calm 10.00 Fair CLR 93.9 61 33% 94 30.06 0.0
31 11:55 Calm 10.00 Fair CLR 93.2 60.8 34% 93 30.07 0.0
31 11:35 SE 6 10.00 Fair CLR 92.8 60.8 34% 93 30.07 0.0
31 11:15 S 7 10.00 Fair CLR 91.4 61 36% 91 30.08 0.0
31 10:55 W 3 10.00 Fair CLR 90.7 61.2 37% 91 30.07 0.0
31 10:35 SW 3 10.00 Fair CLR 89.2 60.4 38% 89 30.07 0.0
31 10:15 SW 3 10.00 Fair CLR 88 60.4 40% 88 30.07 0.0
31 09:55 Calm 10.00 Fair CLR 85.3 64 49% 87 30.07 0.0
31 09:35 W 3 10.00 Fair CLR 84.7 66 54% 87 30.06 0.0
31 09:15 Calm 10.00 Fair CLR 84 66.9 57% 87 30.06 0.0
31 08:55 Calm 10.00 Fair CLR 82.2 66.2 58% 84 30.06 0.0
31 08:35 S 5 10.00 Fair CLR 81.3 65.8 59% 83 30.05 0.0
31 08:15 SE 3 10.00 Fair CLR 79.7 65.5 62% 82 30.05 0.0
31 07:55 Calm 10.00 Fair CLR 78.3 65.5 65% 80 30.04 0.0
31 07:35 Calm 10.00 Fair CLR 75.7 65.7 71% 77 30.03 0.0
31 07:15 Calm 10.00 Fair CLR 76.1 64.9 68% 78 30.03 0.0
31 06:55 Calm 10.00 Fair CLR 74.5 65.7 86.4 74.5 74% 30.02 0.0
31 06:35 Calm 10.00 Fair CLR 77 64.4 65% 79 30.01 0.0
31 06:15 Calm 10.00 Fair CLR 77.2 64.4 65% 79 30.01 0.0
31 05:55 Calm 10.00 Fair CLR 77.5 64.4 64% 79 30.01 0.0
31 05:35 Calm 10.00 Fair CLR 78.3 64.4 63% 80 30.01 0.0
31 05:15 Calm 10.00 Fair CLR 79.7 63.7 58% 81 30 0.0
31 04:55 S 3 10.00 Fair CLR 80.6 63.5 56% 82 30 0.0
31 04:35 Calm 10.00 Fair CLR 80.6 63 55% 82 30 0.0
31 04:15 Calm 10.00 Fair CLR 81.5 62.6 53% 83 30 0.0
31 03:55 Calm 10.00 Fair CLR 82.6 62.4 51% 84 30 0.0
31 03:35 S 5 10.00 Fair CLR 83.5 61.9 48% 84 29.99 0.0
31 03:15 SE 3 10.00 Fair CLR 83.5 61.7 48% 84 29.99 0.0
31 02:55 SE 3 10.00 Fair CLR 83.5 62.6 49% 84 29.99 0.0
31 02:35 SE 6 10.00 Fair CLR 83.8 62.6 49% 85 29.99 0.0
31 02:15 SE 3 10.00 Fair CLR 84.6 62.2 47% 85 29.99 0.0
31 01:55 SE 5 10.00 Fair CLR 85.3 61.9 45% 86 29.99 0.0
31 01:35 SE 6 10.00 Fair CLR 85.5 61.3 44% 86 30 0.0
31 01:15 SE 6 10.00 Fair CLR 86 61.5 44% 86 30 0.0
31 00:55 SE 12 10.00 Fair CLR 86 61.7 97.9 84.2 44% 86 29.99 0.0
31 00:35 SE 6 10.00 Fair CLR 85.5 61.3 44% 86 30 0.0
31 00:15 SE 6 10.00 Fair CLR 84.9 61.7 46% 85 29.99 0.0
30 23:35 E 3 10.00 Partly Cloudy SCT090 84.2 60.8 45% 84 29.98 0.0
30 23:15 E 3 10.00 Fair CLR 85.3 59.7 42% 85 29.98 0.0
30 22:55 E 3 10.00 Fair CLR 86 59 40% 85 29.98 0.0
30 22:35 E 5 10.00 Fair CLR 86.5 58.5 39% 86 29.97 0.0
30 22:15 E 3 10.00 Fair CLR 86.9 58.1 38% 86 29.97 0.0
30 21:55 E 3 10.00 Fair CLR 87.8 57.6 36% 87 29.96 0.0
30 21:35 E 5 10.00 Fair CLR 88.5 57.2 35% 87 29.95 0.0
30 21:15 E 5 10.00 Fair CLR 88.9 57.2 34% 88 29.94 0.0
30 20:55 E 3 10.00 Fair CLR 88.5 56.8 34% 87 29.93 0.0
30 20:35 E 6 10.00 Fair CLR 89.4 56.5 33% 88 29.93 0.0
30 20:15 Calm 10.00 Fair CLR 89.6 57.7 34% 88 29.92 0.0
30 19:55 Calm 10.00 Fair CLR 91.9 55.6 29% 90 29.91 0.0
30 19:35 E 3 10.00 Fair CLR 94.1 55.2 27% 92 29.91 0.0
30 19:15 Calm 10.00 Fair CLR 96.8 54 24% 95 29.91 0.0
30 18:55 Calm 10.00 Fair CLR 97.9 53.4 100 95.2 22% 96 29.91 0.0
30 18:35 Calm 10.00 Fair CLR 98.6 52.3 21% 96 29.92 0.0
30 18:15 E 3 10.00 Fair CLR 98.6 54.1 23% 97 29.92 0.0
30 17:55 Calm 10.00 Fair CLR 96.1 55.8 26% 94 29.92 0.0
30 17:35 Calm 10.00 Fair CLR 96.4 54.9 25% 95 29.92 0.0
30 17:15 Calm 10.00 Fair CLR 97.7 53.6 23% 95 29.92 0.0
30 16:55 Calm 10.00 Fair CLR 96.8 53.4 23% 94 29.93 0.0
30 16:35 Calm 10.00 Fair CLR 97.2 53.6 23% 95 29.93 0.0
30 16:15 E 3 10.00 Fair CLR 100 52.3 20% 98 29.93 0.0
30 15:55 Calm 10.00 Fair CLR 99.5 53.2 21% 97 29.94 0.0
30 15:35 E 6 10.00 Fair CLR 99.5 53.8 22% 97 29.95 0.0
30 15:15 Calm 10.00 Fair CLR 98.8 54 22% 97 29.96 0.0
30 14:55 Calm 10.00 Fair CLR 96.6 54.9 25% 95 29.98 0.0
30 14:35 Calm 10.00 Fair CLR 96.1 55.6 26% 94 29.98 0.0
30 14:15 Calm 10.00 Fair CLR 97.5 56.5 25% 96 29.99 0.0
30 13:55 W 3 10.00 Fair CLR 99.1 57 25% 98 29.99 0.0
30 13:35 Calm 10.00 Fair CLR 95.9 57.6 28% 95 30 0.0
30 13:15 N 3 10.00 Fair CLR 95.5 59 30% 95 30.01 0.0
30 12:55 Calm 10.00 Fair CLR 96.3 60.1 96.3 76.6 30% 96 30.01 0.0
30 12:35 S 6 10.00 Fair CLR 95 60.3 31% 95 30.03 0.0
30 12:15 W 3 10.00 Fair CLR 93.9 62.2 35% 95 30.03 0.0
30 11:55 SW 7 10.00 Fair CLR 93 63.7 38% 95 30.04 0.0
30 11:35 W 3 10.00 Fair CLR 92.1 64.9 41% 94 30.04 0.0
30 11:15 Calm 10.00 Fair CLR 90.3 65.5 44% 93 30.05 0.0
30 10:55 Calm 10.00 Fair CLR 88.9 65.5 46% 91 30.05 0.0
30 10:35 Calm 10.00 Fair CLR 88.2 64.4 45% 90 30.05 0.0
30 10:15 S 8 10.00 Fair CLR 86.5 66.2 51% 89 30.05 0.0
30 09:55 SW 3 10.00 Fair CLR 84.7 67.1 56% 88 30.05 0.0
30 09:35 SW 6 10.00 Fair CLR 84.2 67.1 57% 87 30.06 0.0
30 09:15 SW 3 10.00 Fair CLR 83.5 67.8 59% 87 30.05 0.0
30 08:55 S 5 10.00 Fair CLR 82.4 68 62% 85 30.05 0.0
30 08:35 S 5 10.00 Fair CLR 81.5 67.8 63% 84 30.06 0.0
30 08:15 Calm 10.00 Fair CLR 79.9 67.1 65% 82 30.05 0.0
30 07:55 Calm 10.00 Fair CLR 78.4 66.6 67% 80 30.04 0.0
30 07:35 Calm 10.00 Fair CLR 77 66.2 69% 79 30.04 0.0
30 07:15 Calm 10.00 Fair CLR 76.6 66 70% 78 30.03 0.0
30 06:55 S 5 10.00 Fair CLR 77.2 65.7 79 73.9 68% 79 30.03 0.0
30 06:35 S 3 10.00 Fair CLR 77.4 65.5 67% 79 30.02 0.0
30 06:15 S 5 10.00 Fair CLR 77.2 65.3 67% 79 30.01 0.0
30 05:55 S 5 10.00 Fair CLR 76.1 63.7 66% 78 30.01 0.0
30 05:35 Calm 10.00 Fair CLR 75 61.7 63% 77 30 0.0
30 05:15 Calm 10.00 Fair CLR 74.7 61.2 63% 30 0.0
30 04:55 Calm 10.00 Fair CLR 74.3 60.8 63% 30 0.0
30 04:35 SE 3 10.00 Fair CLR 75.4 60.3 60% 78 30 0.0
30 03:55 Calm 10.00 Fair CLR 75.7 59.9 58% 78 30 0.0
30 03:35 Calm 10.00 Fair CLR 76.3 59.9 57% 78 30 0.0
30 03:15 Calm 10.00 Fair CLR 77 59.7 55% 79 30 0.0
30 02:55 Calm 10.00 Fair CLR 77.2 59.5 55% 79 30.01 0.0
30 02:35 Calm 10.00 Fair CLR 77.4 59.5 54% 79 30.01 0.0
30 02:15 Calm 10.00 Fair CLR 77.9 59.2 53% 79 30.01 0.0
30 01:55 Calm 10.00 Fair CLR 78.4 59 51% 80 30.01 0.0
30 01:35 Calm 10.00 Fair CLR 78.6 59 51% 80 30.01 0.0
30 01:15 Calm 10.00 Fair CLR 78.8 59.2 51% 80 30.01 0.0
30 00:55 Calm 10.00 Fair CLR 78.8 59.5 96.1 78.8 52% 80 30.01 0.0
30 00:35 Calm 10.00 Fair CLR 79.9 59.2 49% 81 30.01 0.0
30 00:15 SE 5 10.00 Fair CLR 80.6 59.2 48% 81 30.01 0.0
29 23:55 E 3 10.00 Fair CLR 81 59 47% 81 30 0.0
29 23:35 Calm 10.00 Fair CLR 81.9 58.6 45% 82 30.01 0.0
29 23:15 E 5 10.00 Fair CLR 82.9 58.1 43% 83 30 0.0
29 22:55 E 5 10.00 Fair CLR 83.5 57.7 42% 83 30 0.0
29 22:35 E 3 10.00 Fair CLR 84 57.2 40% 83 30 0.0
29 22:15 E 3 10.00 Fair CLR 84.7 56.5 38% 84 30 0.0
29 21:55 E 5 10.00 Fair CLR 85.1 55.9 37% 84 30 0.0
29 21:35 E 3 10.00 Fair CLR 86.4 55.4 35% 85 29.99 0.0
29 21:15 E 5 10.00 Fair CLR 87.3 55 33% 86 29.98 0.0
29 20:55 E 5 10.00 Fair CLR 88.2 54.7 32% 86 29.98 0.0
29 20:35 E 5 10.00 Fair CLR 89.4 54.3 30% 87 29.97 0.0
29 20:15 E 5 10.00 Fair CLR 90.5 54.5 29% 88 29.96 0.0
29 19:55 E 5 10.00 Fair CLR 91.6 54.9 29% 90 29.96 0.0
29 19:35 E 5 10.00 Fair CLR 93.2 55 28% 91 29.96 0.0
29 19:15 E 6 10.00 Fair CLR 95 54.3 25% 93 29.96 0.0
29 18:55 NE 5 10.00 Fair CLR 96.3 53.2 100.8 95.4 23% 94 29.95 0.0
29 18:35 E 6 10.00 Fair CLR 97.5 52.7 22% 95 29.95 0.0
29 18:15 NE 6 10.00 Fair CLR 98.2 49.6 19% 95 29.95 0.0
29 17:55 NE 6 10.00 Fair CLR 99 49.8 19% 96 29.95 0.0
29 17:35 Calm 10.00 Fair CLR 97 48.2 19% 93 29.95 0.0
29 17:15 NE 6 10.00 Fair CLR 99.1 49.3 18% 96 29.96 0.0
29 16:55 NE 5 10.00 Fair CLR 100.6 49.3 18% 97 29.96 0.0
29 16:35 N 5 10.00 Fair CLR 99.1 51.4 20% 96 29.97 0.0
29 16:15 NE 3 10.00 Fair CLR 100.6 52.2 20% 98 29.98 0.0
29 15:55 Calm 10.00 Fair CLR 100 51.1 19% 97 29.98 0.0
29 15:35 NE 5 10.00 Fair CLR 99.9 51.1 19% 97 29.99 0.0
29 15:15 Calm 10.00 Fair CLR 98.4 51.6 21% 96 30 0.0
29 14:55 NW 5 10.00 Fair CLR 99.5 53.1 21% 97 30 0.0
29 14:35 W 3 10.00 Fair CLR 98.8 52.5 21% 96 30.01 0.0
29 14:15 Calm 10.00 Fair CLR 99 52.7 21% 97 30.02 0.0
29 13:55 N 6 10.00 Fair CLR 99.1 53.6 22% 97 30.03 0.0
29 13:15 Calm 10.00 Fair CLR 98.4 55.4 24% 97 30.04 0.0
29 12:55 S 5 10.00 Fair CLR 95.5 58.1 95.9 71.6 29% 95 30.05 0.0
29 12:35 Calm 10.00 Fair CLR 94.5 57.7 29% 93 30.06 0.0
29 11:15 Calm 10.00 Fair CLR 93.2 61.3 35% 94 30.08 0.0
29 10:55 Calm 10.00 Fair CLR 91.2 62.8 39% 92 30.08 0.0
29 10:35 SE 3 10.00 Fair CLR 90.3 63.5 41% 91 30.08 0.0
29 10:15 Calm 10.00 Fair CLR 88.7 65.1 46% 91 30.08 0.0
29 09:55 Calm 10.00 Fair CLR 86.2 64.9 49% 88 30.08 0.0
29 09:35 Calm 10.00 Fair CLR 84 65.3 53% 86 30.08 0.0
29 09:15 Calm 10.00 Fair CLR 82.6 65.8 57% 85 30.08 0.0
29 08:55 Calm 10.00 Fair CLR 80.6 66.4 62% 83 30.08 0.0
29 08:35 Calm 10.00 Fair CLR 78.8 67.1 67% 81 30.08 0.0
29 08:15 Calm 10.00 Fair CLR 76.3 66.6 72% 78 30.08 0.0
29 07:55 Calm 10.00 Fair CLR 74.7 66.6 76% 30.08 0.0
29 07:35 Calm 10.00 Fair CLR 72.1 66.4 82% 30.08 0.0
29 07:15 Calm 10.00 Fair CLR 71.6 66 83% 30.07 0.0
29 06:55 Calm 10.00 Fair CLR 72.5 66.2 76.1 71.6 81% 30.07 0.0
29 06:35 Calm 10.00 Fair CLR 72.5 65.8 80% 30.06 0.0
29 06:15 Calm 10.00 Fair CLR 72.5 65.7 79% 30.06 0.0
29 05:55 Calm 10.00 Fair CLR 72.9 65.3 77% 30.06 0.0
29 05:35 Calm 10.00 Fair CLR 72.5 64.6 76% 30.07 0.0
29 05:15 Calm 10.00 Fair CLR 72.9 64.6 75% 30.06 0.0
29 04:55 Calm 10.00 Fair CLR 71.6 63.9 77% 30.06 0.0
29 04:35 Calm 10.00 Fair CLR 72.7 63.7 73% 30.06 0.0
29 04:15 Calm 10.00 Fair CLR 74.3 63.7 70% 30.05 0.0
29 03:55 Calm 10.00 Fair CLR 74.3 63.9 70% 30.05 0.0
29 03:35 Calm 10.00 Fair CLR 75.7 64 67% 78 30.05 0.0
29 03:15 E 3 10.00 Fair CLR 75.6 63.9 67% 77 30.04 0.0
29 02:55 Calm 10.00 Fair CLR 75.6 62.8 65% 78 30.05 0.0
29 02:35 Calm 10.00 Fair CLR 76.1 62.1 62% 78 30.05 0.0
29 02:15 Calm 10.00 Fair CLR 74.7 61.7 64% 30.05 0.0
29 01:55 Calm 10.00 Fair CLR 73 61 66% 30.05 0.0
29 01:35 Calm 10.00 Fair CLR 73.9 61.5 65% 30.05 0.0
29 01:15 Calm 10.00 Fair CLR 74.3 60.8 63% 30.04 0.0
29 00:55 Calm 10.00 Fair CLR 76.5 60.4 93.7 75.9 58% 78 30.04 0.0
29 00:35 Calm 10.00 Fair CLR 76.1 60.3 58% 78 30.04 0.0
29 00:15 Calm 10.00 Fair CLR 76.3 60.1 57% 78 30.03 0.0
28 23:55 Calm 10.00 Fair CLR 77.5 59.9 55% 79 30.03 0.0
28 23:35 Calm 10.00 Fair CLR 80.1 59.2 49% 81 30.03 0.0
28 23:15 Calm 10.00 Fair CLR 77.7 60.8 56% 79 30.03 0.0
28 22:55 Calm 10.00 Fair CLR 80.2 59.5 49% 81 30.03 0.0
28 22:35 Calm 10.00 Fair CLR 81.7 59.4 47% 82 30.02 0.0
28 22:15 Calm 10.00 Fair CLR 82.8 59.5 45% 83 30.02 0.0
28 21:55 Calm 10.00 Fair CLR 82.4 60.6 48% 83 30.01 0.0
28 21:35 Calm 10.00 Fair CLR 82.4 61.5 49% 83 30.01 0.0
28 21:15 Calm 10.00 Fair CLR 82.9 61.7 49% 84 30 0.0
28 20:55 Calm 10.00 Fair CLR 85.8 59.7 41% 86 29.99 0.0
28 20:35 Calm 10.00 Fair CLR 87.8 58.6 37% 87 29.99 0.0
28 20:15 Calm 10.00 Fair CLR 89.6 58.1 35% 89 29.98 0.0
28 19:55 Calm 10.00 Fair CLR 91 57.9 33% 90 29.98 0.0
28 19:35 Calm 10.00 Fair CLR 92.5 57.6 31% 91 29.98 0.0
28 19:15 E 5 10.00 Fair CLR 93.6 57.4 30% 92 29.97 0.0
28 18:55 NE 5 10.00 Fair CLR 93.9 57.4 99.9 93.9 29% 93 29.97 0.0
28 18:35 E 8 10.00 Fair CLR 94.5 58.1 30% 94 29.96 0.0
Date Time (cdt) Wind (mph) Vis. (mi.) Weather Sky Cond. Air Dwpt Max. Min. Relative Humidity Wind Chill (°F) Heat Index (°F) altimeter (in) sea level (mb) 1 hr 3 hr 6 hr
6 hour
Temperature (ºF) Pressure Precipitation (in)